createdAt,value
2018-06-12T00:01:39.837Z,99.90
2018-06-12T00:04:08.091Z,99.90
2018-06-12T00:06:36.352Z,99.90
2018-06-12T00:09:06.711Z,99.90
2018-06-12T00:11:36.427Z,99.90
2018-06-12T00:14:05.120Z,99.90
2018-06-12T00:16:33.877Z,99.90
2018-06-12T00:19:02.202Z,99.90
2018-06-12T00:21:31.032Z,99.90
2018-06-12T00:24:00.238Z,99.90
2018-06-12T00:26:29.683Z,99.90
2018-06-12T00:28:57.933Z,99.90
2018-06-12T00:31:26.495Z,99.90
2018-06-12T00:33:55.931Z,99.90
2018-06-12T00:36:24.719Z,99.90
2018-06-12T00:38:53.242Z,99.90
2018-06-12T00:41:22.918Z,99.90
2018-06-12T00:43:52.063Z,99.90
2018-06-12T00:46:20.612Z,99.90
2018-06-12T00:48:49.175Z,99.90
2018-06-12T00:51:17.683Z,99.90
2018-06-12T00:53:46.680Z,99.90
2018-06-12T00:56:26.166Z,99.90
2018-06-12T00:58:54.530Z,99.90
2018-06-12T01:01:23.089Z,99.90
2018-06-12T01:03:52.383Z,99.90
2018-06-12T01:06:20.937Z,99.80
2018-06-12T01:08:49.189Z,99.90
2018-06-12T01:11:17.436Z,99.90
2018-06-12T01:13:45.950Z,99.90
2018-06-12T01:16:15.055Z,99.90
2018-06-12T01:18:43.598Z,99.90
2018-06-12T01:21:12.582Z,99.90
2018-06-12T01:23:41.095Z,99.90
2018-06-12T01:26:10.274Z,99.90
2018-06-12T01:28:39.428Z,99.90
2018-06-12T01:31:08.390Z,99.90
2018-06-12T01:33:36.919Z,99.90
2018-06-12T01:36:05.467Z,99.90
2018-06-12T01:38:34.552Z,99.90
2018-06-12T01:41:03.095Z,99.90
2018-06-12T01:43:32.758Z,99.90
2018-06-12T01:46:01.020Z,99.90
2018-06-12T01:48:29.558Z,99.90
2018-06-12T01:50:58.714Z,99.90
2018-06-12T01:53:28.054Z,99.90
2018-06-12T01:55:56.434Z,99.70
2018-06-12T01:58:24.937Z,99.90
2018-06-12T02:00:54.528Z,99.90
2018-06-12T02:03:23.857Z,99.50
2018-06-12T02:05:52.218Z,99.90
2018-06-12T02:08:20.462Z,99.90
2018-06-12T02:10:49.018Z,99.90
2018-06-12T02:13:17.555Z,99.90
2018-06-12T02:15:46.662Z,99.90
2018-06-12T02:18:15.214Z,99.90
2018-06-12T02:20:43.481Z,99.90
2018-06-12T02:23:12.711Z,99.70
2018-06-12T02:25:41.465Z,99.90
2018-06-12T02:28:10.005Z,99.90
2018-06-12T02:30:38.459Z,99.20
2018-06-12T02:33:06.710Z,99.10
2018-06-12T02:35:35.273Z,99.90
2018-06-12T02:38:04.680Z,99.70
2018-06-12T02:40:33.269Z,99.90
2018-06-12T02:43:02.287Z,99.90
2018-06-12T02:45:30.663Z,99.90
2018-06-12T02:47:59.429Z,99.20
2018-06-12T02:50:27.678Z,99.40
2018-06-12T02:52:56.004Z,99.90
2018-06-12T02:55:25.093Z,99.40
2018-06-12T02:57:53.571Z,99.50
2018-06-12T03:00:22.300Z,99.90
2018-06-12T03:02:50.829Z,99.90
2018-06-12T03:05:19.385Z,99.90
2018-06-12T03:07:47.935Z,99.90
2018-06-12T03:10:17.075Z,99.90
2018-06-12T03:12:45.627Z,99.90
2018-06-12T03:15:15.174Z,99.90
2018-06-12T03:17:43.678Z,99.90
2018-06-12T03:20:12.231Z,99.90
2018-06-12T03:22:40.497Z,99.90
2018-06-12T03:25:09.770Z,99.90
2018-06-12T03:27:38.308Z,99.90
2018-06-12T03:30:06.791Z,99.90
2018-06-12T03:32:35.399Z,99.90
2018-06-12T03:35:03.957Z,99.90
2018-06-12T03:37:32.711Z,99.90
2018-06-12T03:40:02.000Z,99.90
2018-06-12T03:42:31.491Z,99.90
2018-06-12T03:45:03.161Z,99.90
2018-06-12T03:47:32.198Z,99.90
2018-06-12T03:50:00.702Z,99.90
2018-06-12T03:52:29.266Z,99.90
2018-06-12T03:55:07.017Z,99.90
2018-06-12T03:57:35.552Z,99.90
2018-06-12T04:00:04.919Z,99.90
2018-06-12T04:02:33.655Z,99.80
2018-06-12T04:05:02.838Z,99.90
2018-06-12T04:10:05.161Z,99.90
2018-06-12T04:12:33.730Z,99.40
2018-06-12T04:17:36.503Z,99.90
2018-06-12T04:20:08.627Z,99.10
2018-06-12T04:22:38.436Z,99.20
2018-06-12T04:25:07.099Z,99.20
2018-06-12T04:27:35.612Z,99.20
2018-06-12T04:30:04.275Z,99.20
2018-06-12T04:32:35.896Z,99.90
2018-06-12T04:35:04.220Z,99.90
2018-06-12T04:37:33.439Z,99.30
2018-06-12T04:40:01.844Z,99.30
2018-06-12T04:42:31.115Z,99.20
2018-06-12T04:45:00.056Z,99.90
2018-06-12T04:47:28.838Z,99.30
2018-06-12T04:49:57.427Z,99.60
2018-06-12T04:52:26.594Z,99.50
2018-06-12T04:54:58.399Z,99.30
2018-06-12T04:57:26.991Z,99.10
2018-06-12T04:59:55.587Z,98.40
2018-06-12T05:02:24.134Z,99.70
2018-06-12T05:04:52.740Z,99.10
2018-06-12T05:07:21.598Z,99.40
2018-06-12T05:09:50.144Z,98.50
2018-06-12T05:12:19.623Z,99.90
2018-06-12T05:17:16.986Z,99.20
2018-06-12T05:19:46.214Z,98.00
2018-06-12T05:22:16.089Z,97.60
2018-06-12T05:24:44.654Z,99.20
2018-06-12T05:27:13.673Z,97.50
2018-06-12T05:29:42.156Z,98.60
2018-06-12T05:32:11.914Z,97.90
2018-06-12T05:34:41.380Z,98.10
2018-06-12T05:37:09.899Z,97.20
2018-06-12T05:39:38.194Z,97.30
2018-06-12T05:42:07.299Z,96.60
2018-06-12T05:47:31.210Z,97.60
2018-06-12T05:50:00.699Z,96.40
2018-06-12T05:52:29.168Z,97.90
2018-06-12T05:54:57.452Z,96.70
2018-06-12T05:57:26.184Z,96.60
2018-06-12T05:59:55.082Z,97.10
2018-06-12T06:02:23.604Z,97.30
2018-06-12T06:04:51.998Z,96.60
2018-06-12T06:07:20.561Z,97.60
2018-06-12T06:09:49.703Z,97.40
2018-06-12T06:12:19.151Z,96.90
2018-06-12T06:14:47.602Z,95.80
2018-06-12T06:17:16.132Z,97.00
2018-06-12T06:19:44.506Z,98.00
2018-06-12T06:22:13.264Z,97.50
2018-06-12T06:24:41.978Z,96.50
2018-06-12T06:27:11.202Z,97.40
2018-06-12T06:29:39.799Z,97.60
2018-06-12T06:32:08.543Z,96.30
2018-06-12T06:34:36.837Z,96.50
2018-06-12T06:37:05.177Z,96.90
2018-06-12T06:39:33.851Z,95.40
2018-06-12T06:44:31.284Z,96.90
2018-06-12T06:46:59.688Z,95.80
2018-06-12T06:49:28.511Z,95.60
2018-06-12T06:51:56.913Z,94.80
2018-06-12T06:54:25.527Z,95.40
2018-06-12T06:56:54.116Z,96.80
2018-06-12T06:59:23.645Z,97.30
2018-06-12T07:01:52.836Z,94.80
2018-06-12T07:04:22.030Z,95.70
2018-06-12T07:06:50.327Z,95.10
2018-06-12T07:09:18.644Z,94.90
2018-06-12T07:11:47.125Z,95.10
2018-06-12T07:14:16.571Z,95.00
2018-06-12T07:16:45.580Z,95.00
2018-06-12T07:19:14.116Z,94.70
2018-06-12T07:21:42.408Z,93.30
2018-06-12T07:24:11.005Z,92.90
2018-06-12T07:26:39.637Z,94.20
2018-06-12T07:29:08.171Z,93.90
2018-06-12T07:31:36.689Z,93.50
2018-06-12T07:34:06.240Z,93.90
2018-06-12T07:36:35.279Z,94.70
2018-06-12T07:39:05.911Z,94.80
2018-06-12T07:41:34.467Z,93.40
2018-06-12T07:44:04.471Z,94.10
2018-06-12T07:46:33.013Z,93.80
2018-06-12T07:49:01.579Z,93.20
2018-06-12T07:51:30.123Z,91.50
2018-06-12T07:53:58.425Z,93.30
2018-06-12T07:56:26.834Z,93.00
2018-06-12T07:58:55.814Z,94.00
2018-06-12T08:01:24.318Z,93.40
2018-06-12T08:03:52.884Z,94.20
2018-06-12T08:06:21.167Z,93.50
2018-06-12T08:08:50.534Z,92.90
2018-06-12T08:11:18.973Z,92.50
2018-06-12T08:13:47.235Z,93.80
2018-06-12T08:16:15.799Z,92.00
2018-06-12T08:18:44.301Z,92.70
2018-06-12T08:21:13.560Z,92.70
2018-06-12T08:23:42.392Z,94.00
2018-06-12T08:26:11.014Z,91.70
2018-06-12T08:28:39.432Z,93.90
2018-06-12T08:31:07.682Z,94.90
2018-06-12T08:33:37.083Z,92.70
2018-06-12T08:36:06.518Z,92.30
2018-06-12T08:38:37.373Z,95.50
2018-06-12T08:41:06.094Z,93.70
2018-06-12T08:43:34.548Z,94.40
2018-06-12T08:46:03.930Z,95.30
2018-06-12T08:48:33.623Z,94.40
2018-06-12T08:51:02.130Z,92.70
2018-06-12T08:53:31.590Z,92.40
2018-06-12T08:56:00.148Z,92.20
2018-06-12T08:58:28.690Z,93.10
2018-06-12T09:00:58.030Z,93.60
2018-06-12T09:03:27.545Z,92.90
2018-06-12T09:05:56.566Z,94.70
2018-06-12T09:08:24.982Z,92.90
2018-06-12T09:10:53.514Z,93.30
2018-06-12T09:13:22.082Z,93.80
2018-06-12T09:15:51.309Z,93.60
2018-06-12T09:18:19.870Z,94.20
2018-06-12T09:20:48.736Z,92.60
2018-06-12T09:23:17.682Z,93.30
2018-06-12T09:25:46.310Z,92.50
2018-06-12T09:28:14.863Z,93.10
2018-06-12T09:30:44.080Z,93.90
2018-06-12T09:33:13.124Z,94.00
2018-06-12T09:35:41.839Z,93.70
2018-06-12T09:38:10.403Z,93.10
2018-06-12T09:40:40.071Z,93.10
2018-06-12T09:43:08.603Z,93.90
2018-06-12T09:45:38.554Z,94.20
2018-06-12T09:48:07.620Z,93.30
2018-06-12T09:50:36.010Z,93.10
2018-06-12T09:53:05.504Z,93.50
2018-06-12T09:55:34.048Z,93.00
2018-06-12T09:58:03.208Z,93.80
2018-06-12T10:00:37.536Z,94.20
2018-06-12T10:03:06.860Z,93.80
2018-06-12T10:05:35.418Z,93.20
2018-06-12T10:08:04.776Z,93.60
2018-06-12T10:10:33.312Z,93.50
2018-06-12T10:13:02.291Z,94.10
2018-06-12T10:15:31.556Z,92.60
2018-06-12T10:18:00.093Z,92.70
2018-06-12T10:20:29.331Z,92.70
2018-06-12T10:22:57.867Z,93.00
2018-06-12T10:25:27.256Z,93.70
2018-06-12T10:27:56.636Z,95.20
2018-06-12T10:30:25.242Z,94.10
2018-06-12T10:32:53.743Z,94.00
2018-06-12T10:35:23.552Z,93.30
2018-06-12T10:37:53.395Z,93.00
2018-06-12T10:40:21.862Z,94.10
2018-06-12T10:42:50.377Z,93.50
2018-06-12T10:45:19.507Z,91.80
2018-06-12T10:47:48.343Z,92.00
2018-06-12T10:50:16.683Z,92.80
2018-06-12T10:52:46.123Z,91.40
2018-06-12T10:55:15.034Z,91.10
2018-06-12T10:57:43.500Z,90.20
2018-06-12T11:00:13.182Z,92.10
2018-06-12T11:02:41.623Z,92.30
2018-06-12T11:05:10.170Z,90.70
2018-06-12T11:07:38.439Z,91.40
2018-06-12T11:10:06.925Z,91.50
2018-06-12T11:12:36.599Z,93.30
2018-06-12T11:15:05.013Z,92.20
2018-06-12T11:17:33.700Z,92.30
2018-06-12T11:20:03.479Z,92.40
2018-06-12T11:22:32.052Z,92.50
2018-06-12T11:25:00.604Z,92.50
2018-06-12T11:27:29.166Z,92.50
2018-06-12T11:29:57.624Z,92.60
2018-06-12T11:32:27.705Z,92.70
2018-06-12T11:34:56.043Z,91.90
2018-06-12T11:37:24.591Z,91.90
2018-06-12T11:39:53.868Z,92.50
2018-06-12T11:42:22.435Z,92.70
2018-06-12T11:44:51.035Z,92.40
2018-06-12T11:47:23.883Z,92.40
2018-06-12T11:49:52.350Z,92.40
2018-06-12T11:52:21.927Z,91.60
2018-06-12T11:54:50.565Z,91.30
2018-06-12T11:57:18.884Z,91.10
2018-06-12T11:59:47.436Z,91.70
2018-06-12T12:02:16.301Z,91.00
2018-06-12T12:04:46.047Z,91.10
2018-06-12T12:07:14.611Z,92.10
2018-06-12T12:09:44.326Z,91.80
2018-06-12T12:12:13.372Z,92.10
2018-06-12T12:14:42.561Z,91.40
2018-06-12T12:17:11.889Z,92.00
2018-06-12T12:22:09.135Z,91.00
2018-06-12T12:24:39.037Z,91.70
2018-06-12T12:27:07.477Z,91.30
2018-06-12T12:32:05.822Z,91.20
2018-06-12T12:34:34.428Z,90.80
2018-06-12T12:37:03.306Z,91.20
2018-06-12T12:39:32.620Z,90.90
2018-06-12T12:42:01.409Z,90.70
2018-06-12T12:44:30.869Z,91.60
2018-06-12T12:47:00.381Z,91.20
2018-06-12T12:49:29.239Z,90.70
2018-06-12T12:51:58.480Z,91.40
2018-06-12T12:54:27.759Z,93.20
2018-06-12T12:56:56.315Z,90.90
2018-06-12T12:59:24.984Z,92.60
2018-06-12T13:01:54.251Z,91.40
2018-06-12T13:04:23.366Z,91.00
2018-06-12T13:06:51.806Z,92.00
2018-06-12T13:09:20.252Z,91.70
2018-06-12T13:11:49.860Z,91.50
2018-06-12T13:14:18.422Z,91.60
2018-06-12T13:16:46.702Z,92.90
2018-06-12T13:19:15.744Z,92.30
2018-06-12T13:21:44.926Z,93.00
2018-06-12T13:24:13.491Z,92.50
2018-06-12T13:26:42.792Z,92.60
2018-06-12T13:29:12.172Z,93.20
2018-06-12T13:31:40.600Z,93.80
2018-06-12T13:34:09.189Z,93.10
2018-06-12T13:36:37.609Z,93.30
2018-06-12T13:39:07.491Z,92.60
2018-06-12T13:41:36.375Z,93.00
2018-06-12T13:44:05.269Z,92.00
2018-06-12T13:46:35.027Z,91.80
2018-06-12T13:49:03.776Z,92.50
2018-06-12T13:51:32.236Z,92.40
2018-06-12T13:54:02.060Z,92.40
2018-06-12T13:56:30.657Z,92.60
2018-06-12T13:58:59.709Z,92.80
2018-06-12T14:01:28.235Z,93.40
2018-06-12T14:03:56.765Z,93.10
2018-06-12T14:06:25.097Z,93.50
2018-06-12T14:08:53.644Z,93.00
2018-06-12T14:11:22.171Z,93.60
2018-06-12T14:13:51.928Z,93.40
2018-06-12T14:16:20.213Z,93.00
2018-06-12T14:18:48.823Z,92.20
2018-06-12T14:21:17.789Z,91.40
2018-06-12T14:23:46.337Z,90.00
2018-06-12T14:26:14.688Z,89.90
2018-06-12T14:28:43.388Z,87.90
2018-06-12T14:31:12.406Z,86.70
2018-06-12T14:33:41.512Z,86.10
2018-06-12T14:36:10.451Z,88.60
2018-06-12T14:38:39.064Z,86.70
2018-06-12T14:41:08.715Z,86.10
2018-06-12T14:43:38.466Z,87.10
2018-06-12T14:46:07.059Z,87.30
2018-06-12T14:48:36.549Z,86.50
2018-06-12T14:51:05.469Z,87.50
2018-06-12T14:53:34.031Z,85.60
2018-06-12T14:56:03.542Z,88.20
2018-06-12T14:58:32.884Z,86.80
2018-06-12T15:01:01.588Z,87.70
2018-06-12T15:03:30.144Z,89.00
2018-06-12T15:05:59.426Z,88.40
2018-06-12T15:08:27.970Z,88.60
2018-06-12T15:10:57.339Z,89.00
2018-06-12T15:13:26.571Z,86.60
2018-06-12T15:15:54.845Z,85.90
2018-06-12T15:18:23.408Z,85.40
2018-06-12T15:20:52.893Z,83.10
2018-06-12T15:23:21.346Z,82.70
2018-06-12T15:25:49.929Z,81.40
2018-06-12T15:28:19.570Z,82.10
2018-06-12T15:30:48.128Z,78.00
2018-06-12T15:33:16.563Z,79.30
2018-06-12T15:35:45.996Z,78.00
2018-06-12T15:38:15.123Z,74.90
2018-06-12T15:40:43.699Z,74.10
2018-06-12T15:43:13.079Z,74.20
2018-06-12T15:45:41.708Z,75.00
2018-06-12T15:48:11.929Z,77.90
2018-06-12T15:53:09.286Z,75.40
2018-06-12T15:55:37.631Z,74.50
2018-06-12T15:58:06.436Z,74.60
2018-06-12T16:00:35.805Z,75.10
2018-06-12T16:03:04.371Z,75.60
2018-06-12T16:05:34.378Z,78.40
2018-06-12T16:08:03.856Z,77.60
2018-06-12T16:10:32.815Z,78.90
2018-06-12T16:13:01.356Z,78.40
2018-06-12T16:15:29.919Z,78.20
2018-06-12T16:17:58.748Z,78.60
2018-06-12T16:20:28.183Z,76.70
2018-06-12T16:22:56.829Z,78.20
2018-06-12T16:25:26.073Z,80.00
2018-06-12T16:27:54.624Z,80.30
2018-06-12T16:30:23.195Z,82.40
2018-06-12T16:32:52.230Z,83.20
2018-06-12T16:35:20.783Z,81.00
2018-06-12T16:37:49.407Z,81.40
2018-06-12T16:40:17.920Z,80.40
2018-06-12T16:42:46.407Z,79.30
2018-06-12T16:45:15.017Z,77.50
2018-06-12T16:47:43.629Z,75.60
2018-06-12T16:50:12.220Z,75.30
2018-06-12T16:52:40.610Z,74.70
2018-06-12T16:55:10.451Z,72.00
2018-06-12T16:57:39.043Z,70.50
2018-06-12T17:00:07.565Z,67.20
2018-06-12T17:02:36.640Z,64.30
2018-06-12T17:05:06.665Z,65.90
2018-06-12T17:07:35.681Z,66.50
2018-06-12T17:10:04.839Z,68.80
2018-06-12T17:12:33.498Z,69.50
2018-06-12T17:15:02.561Z,68.30
2018-06-12T17:17:31.328Z,68.50
2018-06-12T17:20:00.255Z,69.90
2018-06-12T17:22:29.571Z,69.20
2018-06-12T17:24:58.240Z,70.50
2018-06-12T17:27:26.833Z,72.30
2018-06-12T17:29:56.369Z,76.70
2018-06-12T17:32:24.950Z,74.30
2018-06-12T17:34:53.498Z,75.30
2018-06-12T17:37:22.391Z,76.60
2018-06-12T17:39:50.690Z,77.70
2018-06-12T17:42:19.057Z,77.20
2018-06-12T17:44:47.391Z,75.90
2018-06-12T17:47:17.030Z,77.90
2018-06-12T17:49:45.706Z,77.60
2018-06-12T17:52:14.345Z,80.40
2018-06-12T17:54:42.976Z,79.10
2018-06-12T17:57:12.278Z,79.90
2018-06-12T17:59:41.257Z,79.30
2018-06-12T18:02:09.797Z,78.20
2018-06-12T18:04:38.177Z,78.70
2018-06-12T18:07:07.390Z,78.70
2018-06-12T18:09:36.309Z,77.80
2018-06-12T18:12:05.961Z,78.20
2018-06-12T18:14:34.588Z,79.40
2018-06-12T18:17:04.141Z,81.50
2018-06-12T18:19:33.667Z,81.60
2018-06-12T18:22:02.943Z,84.60
2018-06-12T18:24:32.548Z,86.40
2018-06-12T18:27:02.453Z,83.40
2018-06-12T18:32:00.083Z,86.00
2018-06-12T18:34:28.528Z,86.60
2018-06-12T18:36:57.796Z,86.80
2018-06-12T18:39:26.158Z,89.10
2018-06-12T18:41:55.561Z,90.10
2018-06-12T18:44:24.297Z,91.20
2018-06-12T18:46:52.679Z,91.00
2018-06-12T18:49:22.111Z,90.90
2018-06-12T18:51:51.283Z,90.50
2018-06-12T18:54:20.276Z,90.90
2018-06-12T18:56:49.523Z,90.70
2018-06-12T18:59:18.217Z,91.20
2018-06-12T19:01:47.996Z,91.50
2018-06-12T19:04:16.925Z,91.80
2018-06-12T19:06:45.525Z,92.60
2018-06-12T19:09:16.052Z,92.90
2018-06-12T19:11:45.880Z,92.80
2018-06-12T19:14:15.082Z,92.10
2018-06-12T19:16:44.878Z,92.50
2018-06-12T19:19:15.865Z,93.20
2018-06-12T19:21:44.585Z,93.40
2018-06-12T19:24:13.007Z,93.80
2018-06-12T19:26:42.096Z,94.60
2018-06-12T19:29:11.556Z,94.70
2018-06-12T19:31:42.432Z,95.00
2018-06-12T19:34:11.481Z,95.00
2018-06-12T19:36:40.862Z,95.60
2018-06-12T19:39:09.568Z,95.40
2018-06-12T19:41:38.520Z,95.60
2018-06-12T19:44:07.098Z,96.50
2018-06-12T19:46:35.786Z,96.70
2018-06-12T19:49:06.227Z,96.20
2018-06-12T19:51:34.618Z,96.10
2018-06-12T19:54:03.436Z,96.30
2018-06-12T19:56:33.318Z,96.40
2018-06-12T19:59:04.736Z,96.60
2018-06-12T20:01:34.571Z,96.50
2018-06-12T20:04:04.278Z,96.90
2018-06-12T20:06:33.786Z,96.60
2018-06-12T20:09:02.862Z,96.60
2018-06-12T20:11:31.273Z,96.60
2018-06-12T20:14:00.210Z,97.20
2018-06-12T20:16:29.459Z,97.70
2018-06-12T20:18:57.843Z,97.30
2018-06-12T20:21:26.429Z,97.50
2018-06-12T20:23:55.523Z,97.80
2018-06-12T20:26:23.945Z,97.90
2018-06-12T20:28:52.438Z,98.30
2018-06-12T20:31:21.195Z,99.20
2018-06-12T20:33:49.628Z,98.60
2018-06-12T20:36:18.803Z,98.60
2018-06-12T20:38:47.267Z,98.80
2018-06-12T20:41:15.939Z,99.00
2018-06-12T20:43:44.303Z,98.40
2018-06-12T20:46:12.783Z,98.00
2018-06-12T20:48:44.326Z,98.60
2018-06-12T20:53:41.932Z,98.60
2018-06-12T20:56:11.328Z,97.90
2018-06-12T20:58:41.364Z,97.80
2018-06-12T21:01:10.529Z,97.70
2018-06-12T21:03:40.173Z,97.70
2018-06-12T21:06:09.390Z,98.10
2018-06-12T21:08:37.801Z,97.50
2018-06-12T21:11:06.198Z,97.00
2018-06-12T21:13:34.504Z,97.90
2018-06-12T21:16:02.857Z,96.90
2018-06-12T21:18:31.236Z,97.20
2018-06-12T21:20:59.531Z,96.90
2018-06-12T21:23:28.213Z,96.70
2018-06-12T21:25:56.540Z,97.10
2018-06-12T21:30:52.951Z,97.20
2018-06-12T21:33:21.261Z,97.20
2018-06-12T21:35:49.560Z,97.50
2018-06-12T21:38:17.849Z,97.30
2018-06-12T21:40:46.190Z,97.40
2018-06-12T21:43:14.581Z,97.50
2018-06-12T21:45:43.122Z,97.80
2018-06-12T21:48:15.592Z,97.70
2018-06-12T21:50:44.033Z,97.90
2018-06-12T21:53:12.320Z,98.10
2018-06-12T21:55:40.872Z,98.10
2018-06-12T21:58:10.086Z,98.40
2018-06-12T22:00:38.377Z,98.70
2018-06-12T22:03:07.330Z,98.50
2018-06-12T22:05:35.665Z,99.00
2018-06-12T22:08:04.171Z,98.90
2018-06-12T22:10:38.712Z,99.40
2018-06-12T22:13:07.020Z,98.80
2018-06-12T22:15:35.300Z,99.30
2018-06-12T22:18:03.819Z,99.20
2018-06-12T22:20:33.552Z,99.30
2018-06-12T22:23:01.853Z,98.50
2018-06-12T22:25:30.265Z,98.80
2018-06-12T22:27:58.671Z,99.00
2018-06-12T22:30:27.188Z,99.60
2018-06-12T22:35:54.111Z,99.90
2018-06-12T22:38:22.385Z,99.90
2018-06-12T22:40:50.690Z,99.90
2018-06-12T22:43:18.979Z,99.40
2018-06-12T22:45:47.569Z,99.50
2018-06-12T22:48:16.023Z,99.80
2018-06-12T22:50:44.334Z,97.70
2018-06-12T22:53:12.990Z,97.50
2018-06-12T22:55:41.279Z,97.80
2018-06-12T23:01:06.154Z,97.50
2018-06-12T23:03:34.613Z,97.80
2018-06-12T23:06:02.888Z,98.20
2018-06-12T23:08:31.195Z,98.80
2018-06-12T23:10:59.465Z,98.50
2018-06-12T23:13:27.762Z,98.60
2018-06-12T23:15:56.102Z,99.20
2018-06-12T23:18:24.370Z,99.00
2018-06-12T23:22:04.957Z,98.30
2018-06-12T23:24:33.230Z,98.30
2018-06-12T23:27:01.616Z,97.50
2018-06-12T23:29:30.023Z,97.20
2018-06-12T23:31:58.309Z,97.20
2018-06-12T23:34:26.655Z,97.30
2018-06-12T23:36:55.200Z,97.30
2018-06-12T23:39:30.055Z,98.60
2018-06-12T23:44:27.493Z,97.30
2018-06-12T23:46:56.320Z,97.40
2018-06-12T23:49:24.644Z,97.10
2018-06-12T23:51:53.346Z,97.00
2018-06-12T23:54:21.636Z,96.40
2018-06-12T23:56:49.939Z,97.00
2018-06-12T23:59:18.255Z,96.30
